首页
METAR-TAF:

METAR-TAF

机场 :

溫哥華國際機場

溫哥華, 不列颠哥伦比亚, 加拿大

纬度: 49-11N, 经度: 123-10W, 海拔: 3米

当前天气观测

该预报发布于32分钟前的21:00 UTC
风速10节,风向东南
温度 11°C
湿度 87%
气压 1023 hPa
能見度: 24.1公里
少量云层高于900英尺
少量云层高于1100英尺
阴天层高于4500英尺

METAR: CYVR 152100Z 14010KT 15SM FEW009 FEW011 OVC045 11/09 A3022 RMK CF1CF1SC6 SLP234

时间: 13:32 (21:32 UTC)

预报

该预报发布于54分钟前的20:38 UTC
预报有效从15日的 21点(UTC)到 16日的 24点(UTC)
风速12节,风向东南
能見度: 10公里
少量云层高于800英尺
散云层高于1200英尺
阴天层高于5000英尺
短暂存在
从 15日的 21点(UTC)到 15日的 24点(UTC)
能見度: 10公里
多云层高于800英尺
多云层高于1200英尺
阴天层高于5000英尺
小雨
从 16日的 0000点(UTC)
风速8节,风向东转东南
能見度: 10公里
少量云层高于400英尺
散云层高于800英尺
阴天层高于2500英尺
小雨
短暂存在
从 16日的 00点(UTC)到 16日的 15点(UTC)
能見度: 4.8公里
散云层高于400英尺
多云层高于800英尺
阴天层高于2000英尺
小雨, 轻雾
从 16日的 1500点(UTC)
风速7节,风向西转西北
能見度: 10公里
散云层高于1200英尺
阴天层高于3000英尺
短暂存在
从 16日的 15点(UTC)到 16日的 21点(UTC)
能見度: 8.0公里
多云层高于1200英尺
阴天层高于3000英尺
小阵雨, 轻雾
从 16日的 2100点(UTC)
风速10节,风向西
能見度: 10公里
少量云层高于2000英尺
散云层高于5000英尺

TAF: CYVR 152038Z 1521/1624 13012KT P6SM FEW008 SCT012 OVC050 TEMPO 1521/1524 P6SM -RA BKN008 BKN012 OVC050 FM160000 11008KT P6SM -RA FEW004 SCT008 OVC025 TEMPO 1600/1615 3SM -RA BR SCT004 BKN008 OVC020 FM161500 29007KT P6SM SCT012 OVC030 TEMPO 1615/1621 5SM -SHRA BR BKN012 OVC030 FM162100 28010KT P6SM FEW020 SCT050 RMK NXT FCST BY 160000Z

超过4000个机场的气象观测和天气预报(METAR&TAF报告)。

可查询的气象台以黄色和红色小点在地图上表示。

将鼠标移到小点上方,可查看气象台名称。

然后点击查看天气观测和预报。

如需切换地图:点击带黑十字的绿色按钮放大地图;点击带横线的绿色按钮缩小地图;或者点击绿色箭头查看邻近地区的地图。


METAR-TAF: